sensor_id;sensor_type;location;lat;lon;timestamp;temperature;humidity
19330;DHT22;9799;48.214;16.388;2023-08-30T00:00:03;17.10;99.90
19330;DHT22;9799;48.214;16.388;2023-08-30T00:03:24;17.10;99.90
19330;DHT22;9799;48.214;16.388;2023-08-30T00:06:45;17.10;99.90
19330;DHT22;9799;48.214;16.388;2023-08-30T00:10:07;17.10;99.90
19330;DHT22;9799;48.214;16.388;2023-08-30T00:13:32;17.00;99.90
19330;DHT22;9799;48.214;16.388;2023-08-30T00:16:54;17.10;99.90
19330;DHT22;9799;48.214;16.388;2023-08-30T00:20:15;17.10;99.90
19330;DHT22;9799;48.214;16.388;2023-08-30T00:23:36;17.10;99.90
19330;DHT22;9799;48.214;16.388;2023-08-30T00:26:57;17.20;99.90
19330;DHT22;9799;48.214;16.388;2023-08-30T00:30:20;17.20;99.90
19330;DHT22;9799;48.214;16.388;2023-08-30T00:33:41;17.20;99.90
19330;DHT22;9799;48.214;16.388;2023-08-30T00:37:02;17.20;99.90
19330;DHT22;9799;48.214;16.388;2023-08-30T00:40:23;17.30;99.90
19330;DHT22;9799;48.214;16.388;2023-08-30T00:43:45;17.20;99.90
19330;DHT22;9799;48.214;16.388;2023-08-30T00:47:07;17.20;99.90
19330;DHT22;9799;48.214;16.388;2023-08-30T00:50:32;17.30;99.90
19330;DHT22;9799;48.214;16.388;2023-08-30T00:53:56;17.20;99.90
19330;DHT22;9799;48.214;16.388;2023-08-30T00:57:18;17.20;99.90
19330;DHT22;9799;48.214;16.388;2023-08-30T01:00:39;17.20;99.90
19330;DHT22;9799;48.214;16.388;2023-08-30T01:04:02;17.30;99.90
19330;DHT22;9799;48.214;16.388;2023-08-30T01:07:24;17.30;99.90
19330;DHT22;9799;48.214;16.388;2023-08-30T01:11:01;17.30;99.90
19330;DHT22;9799;48.214;16.388;2023-08-30T01:14:31;17.40;99.90
19330;DHT22;9799;48.214;16.388;2023-08-30T01:17:54;17.30;99.90
19330;DHT22;9799;48.214;16.388;2023-08-30T01:25:14;17.30;99.90
19330;DHT22;9799;48.214;16.388;2023-08-30T01:28:38;17.30;99.90
19330;DHT22;9799;48.214;16.388;2023-08-30T01:32:00;17.40;99.90
19330;DHT22;9799;48.214;16.388;2023-08-30T01:35:23;17.30;99.90
19330;DHT22;9799;48.214;16.388;2023-08-30T01:38:45;17.40;99.90
19330;DHT22;9799;48.214;16.388;2023-08-30T01:42:07;17.40;99.90
19330;DHT22;9799;48.214;16.388;2023-08-30T01:45:31;17.40;99.90
19330;DHT22;9799;48.214;16.388;2023-08-30T01:48:52;17.40;99.90
19330;DHT22;9799;48.214;16.388;2023-08-30T01:52:14;17.40;99.90
19330;DHT22;9799;48.214;16.388;2023-08-30T01:55:36;17.30;99.90
19330;DHT22;9799;48.214;16.388;2023-08-30T01:58:58;17.30;99.90
19330;DHT22;9799;48.214;16.388;2023-08-30T02:02:21;17.40;99.90
19330;DHT22;9799;48.214;16.388;2023-08-30T02:05:51;17.40;99.90
19330;DHT22;9799;48.214;16.388;2023-08-30T02:09:17;17.40;99.90
19330;DHT22;9799;48.214;16.388;2023-08-30T02:12:43;17.30;99.90
19330;DHT22;9799;48.214;16.388;2023-08-30T02:16:08;17.10;99.90
19330;DHT22;9799;48.214;16.388;2023-08-30T02:19:32;17.20;99.90
19330;DHT22;9799;48.214;16.388;2023-08-30T02:22:57;17.20;99.90
19330;DHT22;9799;48.214;16.388;2023-08-30T02:26:19;17.10;99.90
19330;DHT22;9799;48.214;16.388;2023-08-30T02:29:40;17.00;99.90
19330;DHT22;9799;48.214;16.388;2023-08-30T02:33:02;17.00;99.90
19330;DHT22;9799;48.214;16.388;2023-08-30T02:36:25;17.10;99.90
19330;DHT22;9799;48.214;16.388;2023-08-30T02:39:46;17.10;99.90
19330;DHT22;9799;48.214;16.388;2023-08-30T02:43:07;17.00;99.90
19330;DHT22;9799;48.214;16.388;2023-08-30T02:46:28;16.90;99.90
19330;DHT22;9799;48.214;16.388;2023-08-30T02:49:49;16.90;99.90
19330;DHT22;9799;48.214;16.388;2023-08-30T02:53:12;17.00;99.90
19330;DHT22;9799;48.214;16.388;2023-08-30T02:56:33;17.00;99.90
19330;DHT22;9799;48.214;16.388;2023-08-30T02:59:54;17.00;99.90
19330;DHT22;9799;48.214;16.388;2023-08-30T03:03:15;17.00;99.90
19330;DHT22;9799;48.214;16.388;2023-08-30T03:06:37;16.90;99.90
19330;DHT22;9799;48.214;16.388;2023-08-30T03:09:59;16.90;99.90
19330;DHT22;9799;48.214;16.388;2023-08-30T03:13:20;16.80;99.90
19330;DHT22;9799;48.214;16.388;2023-08-30T03:16:42;16.90;99.90
19330;DHT22;9799;48.214;16.388;2023-08-30T03:20:06;16.90;99.90
19330;DHT22;9799;48.214;16.388;2023-08-30T03:23:30;16.80;99.90
19330;DHT22;9799;48.214;16.388;2023-08-30T03:26:53;16.80;99.90
19330;DHT22;9799;48.214;16.388;2023-08-30T03:30:14;16.80;99.90
19330;DHT22;9799;48.214;16.388;2023-08-30T03:33:36;16.80;99.90
19330;DHT22;9799;48.214;16.388;2023-08-30T03:36:57;16.70;99.90
19330;DHT22;9799;48.214;16.388;2023-08-30T03:40:18;16.70;99.90
19330;DHT22;9799;48.214;16.388;2023-08-30T03:43:41;16.70;99.90
19330;DHT22;9799;48.214;16.388;2023-08-30T03:47:02;16.70;99.90
19330;DHT22;9799;48.214;16.388;2023-08-30T03:50:23;16.70;99.90
19330;DHT22;9799;48.214;16.388;2023-08-30T03:53:45;16.70;99.90
19330;DHT22;9799;48.214;16.388;2023-08-30T03:57:06;16.70;99.90
19330;DHT22;9799;48.214;16.388;2023-08-30T04:00:29;16.70;99.90
19330;DHT22;9799;48.214;16.388;2023-08-30T04:03:50;16.70;99.90
19330;DHT22;9799;48.214;16.388;2023-08-30T04:07:11;16.60;99.90
19330;DHT22;9799;48.214;16.388;2023-08-30T04:10:34;16.60;99.90
19330;DHT22;9799;48.214;16.388;2023-08-30T04:13:56;16.60;99.90
19330;DHT22;9799;48.214;16.388;2023-08-30T04:17:18;16.70;99.90
19330;DHT22;9799;48.214;16.388;2023-08-30T04:20:43;16.70;99.90
19330;DHT22;9799;48.214;16.388;2023-08-30T04:24:05;16.80;99.90
19330;DHT22;9799;48.214;16.388;2023-08-30T04:27:27;16.80;99.90
19330;DHT22;9799;48.214;16.388;2023-08-30T04:30:48;16.80;99.90
19330;DHT22;9799;48.214;16.388;2023-08-30T04:34:10;16.60;99.90
19330;DHT22;9799;48.214;16.388;2023-08-30T04:37:32;16.80;99.90
19330;DHT22;9799;48.214;16.388;2023-08-30T04:40:57;16.80;99.90
19330;DHT22;9799;48.214;16.388;2023-08-30T04:44:19;16.80;99.90
19330;DHT22;9799;48.214;16.388;2023-08-30T04:47:44;16.70;99.90
19330;DHT22;9799;48.214;16.388;2023-08-30T04:51:07;16.80;99.90
19330;DHT22;9799;48.214;16.388;2023-08-30T04:54:28;16.80;99.90
19330;DHT22;9799;48.214;16.388;2023-08-30T04:57:49;16.80;99.90
19330;DHT22;9799;48.214;16.388;2023-08-30T05:01:13;16.80;99.90
19330;DHT22;9799;48.214;16.388;2023-08-30T05:04:36;16.90;99.90
19330;DHT22;9799;48.214;16.388;2023-08-30T05:07:58;16.90;99.90
19330;DHT22;9799;48.214;16.388;2023-08-30T05:11:20;17.00;99.90
19330;DHT22;9799;48.214;16.388;2023-08-30T05:14:41;17.00;99.90
19330;DHT22;9799;48.214;16.388;2023-08-30T05:18:03;17.10;99.90
19330;DHT22;9799;48.214;16.388;2023-08-30T05:21:24;17.10;99.90
19330;DHT22;9799;48.214;16.388;2023-08-30T05:24:47;17.00;99.90
19330;DHT22;9799;48.214;16.388;2023-08-30T05:28:08;17.10;99.90
19330;DHT22;9799;48.214;16.388;2023-08-30T05:31:29;17.10;99.90
19330;DHT22;9799;48.214;16.388;2023-08-30T05:34:50;17.10;99.90
19330;DHT22;9799;48.214;16.388;2023-08-30T05:38:11;17.10;99.90
19330;DHT22;9799;48.214;16.388;2023-08-30T05:41:34;17.10;99.90
19330;DHT22;9799;48.214;16.388;2023-08-30T05:44:55;17.10;99.90
19330;DHT22;9799;48.214;16.388;2023-08-30T05:48:16;17.10;99.90
19330;DHT22;9799;48.214;16.388;2023-08-30T05:51:37;17.00;99.90
19330;DHT22;9799;48.214;16.388;2023-08-30T05:54:59;16.90;99.90
19330;DHT22;9799;48.214;16.388;2023-08-30T05:58:21;17.00;99.90
19330;DHT22;9799;48.214;16.388;2023-08-30T06:01:42;17.10;99.90
19330;DHT22;9799;48.214;16.388;2023-08-30T06:05:05;17.10;99.90
19330;DHT22;9799;48.214;16.388;2023-08-30T06:08:27;17.10;99.90
19330;DHT22;9799;48.214;16.388;2023-08-30T06:11:48;17.10;99.90
19330;DHT22;9799;48.214;16.388;2023-08-30T06:15:14;17.10;99.90
19330;DHT22;9799;48.214;16.388;2023-08-30T06:18:35;17.20;99.90
19330;DHT22;9799;48.214;16.388;2023-08-30T06:21:57;17.20;99.90
19330;DHT22;9799;48.214;16.388;2023-08-30T06:25:18;17.30;99.90
19330;DHT22;9799;48.214;16.388;2023-08-30T06:28:39;17.40;99.90
19330;DHT22;9799;48.214;16.388;2023-08-30T06:32:02;17.50;99.90
19330;DHT22;9799;48.214;16.388;2023-08-30T06:35:23;17.70;99.90
19330;DHT22;9799;48.214;16.388;2023-08-30T06:38:45;17.80;99.90
19330;DHT22;9799;48.214;16.388;2023-08-30T06:42:06;17.80;99.90
19330;DHT22;9799;48.214;16.388;2023-08-30T06:45:27;17.70;99.90
19330;DHT22;9799;48.214;16.388;2023-08-30T06:48:49;17.80;99.90
19330;DHT22;9799;48.214;16.388;2023-08-30T06:52:11;17.90;99.90
19330;DHT22;9799;48.214;16.388;2023-08-30T06:55:32;17.90;99.90
19330;DHT22;9799;48.214;16.388;2023-08-30T06:58:53;17.80;99.90
19330;DHT22;9799;48.214;16.388;2023-08-30T07:02:14;17.80;99.90
19330;DHT22;9799;48.214;16.388;2023-08-30T07:05:38;17.80;99.90
19330;DHT22;9799;48.214;16.388;2023-08-30T07:09:00;17.80;99.90
19330;DHT22;9799;48.214;16.388;2023-08-30T07:12:23;17.80;99.90
19330;DHT22;9799;48.214;16.388;2023-08-30T07:15:44;17.80;99.90
19330;DHT22;9799;48.214;16.388;2023-08-30T07:19:06;17.80;99.90
19330;DHT22;9799;48.214;16.388;2023-08-30T07:22:32;18.00;99.90
19330;DHT22;9799;48.214;16.388;2023-08-30T07:25:54;18.00;99.90
19330;DHT22;9799;48.214;16.388;2023-08-30T07:29:16;18.10;99.90
19330;DHT22;9799;48.214;16.388;2023-08-30T07:32:37;18.10;99.90
19330;DHT22;9799;48.214;16.388;2023-08-30T07:35:59;18.20;99.90
19330;DHT22;9799;48.214;16.388;2023-08-30T07:39:22;18.30;99.90
19330;DHT22;9799;48.214;16.388;2023-08-30T07:42:43;18.50;99.90
19330;DHT22;9799;48.214;16.388;2023-08-30T07:46:05;18.50;99.90
19330;DHT22;9799;48.214;16.388;2023-08-30T07:49:26;18.80;99.90
19330;DHT22;9799;48.214;16.388;2023-08-30T07:52:47;18.80;99.90
19330;DHT22;9799;48.214;16.388;2023-08-30T07:56:11;18.80;99.90
19330;DHT22;9799;48.214;16.388;2023-08-30T07:59:33;18.60;99.90
19330;DHT22;9799;48.214;16.388;2023-08-30T08:02:55;18.90;99.90
19330;DHT22;9799;48.214;16.388;2023-08-30T08:06:16;19.10;99.90
19330;DHT22;9799;48.214;16.388;2023-08-30T08:09:37;19.00;99.90
19330;DHT22;9799;48.214;16.388;2023-08-30T08:13:00;19.10;99.90
19330;DHT22;9799;48.214;16.388;2023-08-30T08:16:21;19.10;99.90
19330;DHT22;9799;48.214;16.388;2023-08-30T08:19:42;18.90;99.90
19330;DHT22;9799;48.214;16.388;2023-08-30T08:23:04;18.70;99.90
19330;DHT22;9799;48.214;16.388;2023-08-30T08:26:25;18.80;99.90
19330;DHT22;9799;48.214;16.388;2023-08-30T08:29:48;18.80;99.90
19330;DHT22;9799;48.214;16.388;2023-08-30T08:33:09;19.00;99.90
19330;DHT22;9799;48.214;16.388;2023-08-30T08:36:30;18.90;99.90
19330;DHT22;9799;48.214;16.388;2023-08-30T08:39:52;19.00;99.90
19330;DHT22;9799;48.214;16.388;2023-08-30T08:43:16;19.00;99.90
19330;DHT22;9799;48.214;16.388;2023-08-30T08:46:41;19.30;99.90
19330;DHT22;9799;48.214;16.388;2023-08-30T08:50:02;19.60;99.90
19330;DHT22;9799;48.214;16.388;2023-08-30T08:53:23;19.40;99.90
19330;DHT22;9799;48.214;16.388;2023-08-30T08:56:45;19.20;99.90
19330;DHT22;9799;48.214;16.388;2023-08-30T09:00:08;19.20;99.90
19330;DHT22;9799;48.214;16.388;2023-08-30T09:03:32;19.70;99.90
19330;DHT22;9799;48.214;16.388;2023-08-30T09:06:54;19.90;99.90
19330;DHT22;9799;48.214;16.388;2023-08-30T09:10:16;20.20;99.90
19330;DHT22;9799;48.214;16.388;2023-08-30T09:13:37;20.10;99.90
19330;DHT22;9799;48.214;16.388;2023-08-30T09:17:00;20.30;99.90
19330;DHT22;9799;48.214;16.388;2023-08-30T09:20:23;20.10;99.90
19330;DHT22;9799;48.214;16.388;2023-08-30T09:23:44;19.80;99.90
19330;DHT22;9799;48.214;16.388;2023-08-30T09:27:06;19.70;99.90
19330;DHT22;9799;48.214;16.388;2023-08-30T09:30:27;19.70;99.90
19330;DHT22;9799;48.214;16.388;2023-08-30T09:33:49;19.80;99.90
19330;DHT22;9799;48.214;16.388;2023-08-30T09:37:21;19.80;99.90
19330;DHT22;9799;48.214;16.388;2023-08-30T09:40:42;19.80;99.90
19330;DHT22;9799;48.214;16.388;2023-08-30T09:44:06;19.70;99.90
19330;DHT22;9799;48.214;16.388;2023-08-30T09:47:29;19.60;99.90
19330;DHT22;9799;48.214;16.388;2023-08-30T09:50:53;19.60;99.90
19330;DHT22;9799;48.214;16.388;2023-08-30T09:54:17;19.70;99.90
19330;DHT22;9799;48.214;16.388;2023-08-30T09:57:39;20.00;99.90
19330;DHT22;9799;48.214;16.388;2023-08-30T10:01:02;20.20;99.90
19330;DHT22;9799;48.214;16.388;2023-08-30T10:04:24;20.30;99.90
19330;DHT22;9799;48.214;16.388;2023-08-30T10:07:47;20.30;99.90
19330;DHT22;9799;48.214;16.388;2023-08-30T10:11:11;20.10;99.90
19330;DHT22;9799;48.214;16.388;2023-08-30T10:14:33;20.20;99.90
19330;DHT22;9799;48.214;16.388;2023-08-30T10:17:58;20.10;99.90
19330;DHT22;9799;48.214;16.388;2023-08-30T10:21:19;20.40;99.90
19330;DHT22;9799;48.214;16.388;2023-08-30T10:24:44;20.40;99.90
19330;DHT22;9799;48.214;16.388;2023-08-30T10:28:08;20.60;99.90
19330;DHT22;9799;48.214;16.388;2023-08-30T10:31:31;20.50;99.90
19330;DHT22;9799;48.214;16.388;2023-08-30T10:34:52;20.50;99.90
19330;DHT22;9799;48.214;16.388;2023-08-30T10:38:24;20.60;99.90
19330;DHT22;9799;48.214;16.388;2023-08-30T10:41:56;20.70;99.90
19330;DHT22;9799;48.214;16.388;2023-08-30T10:45:23;20.70;99.90
19330;DHT22;9799;48.214;16.388;2023-08-30T10:48:45;20.80;99.90
19330;DHT22;9799;48.214;16.388;2023-08-30T10:52:12;20.50;99.90
19330;DHT22;9799;48.214;16.388;2023-08-30T10:55:33;20.70;99.90
19330;DHT22;9799;48.214;16.388;2023-08-30T10:58:54;20.60;99.90
19330;DHT22;9799;48.214;16.388;2023-08-30T11:02:17;20.80;99.90
19330;DHT22;9799;48.214;16.388;2023-08-30T11:05:40;20.60;99.90
19330;DHT22;9799;48.214;16.388;2023-08-30T11:09:03;20.80;99.90
19330;DHT22;9799;48.214;16.388;2023-08-30T11:12:25;21.20;99.90
19330;DHT22;9799;48.214;16.388;2023-08-30T11:15:47;20.90;99.90
19330;DHT22;9799;48.214;16.388;2023-08-30T11:19:10;20.60;99.90
19330;DHT22;9799;48.214;16.388;2023-08-30T11:22:34;20.50;99.90
19330;DHT22;9799;48.214;16.388;2023-08-30T11:25:55;20.70;99.90
19330;DHT22;9799;48.214;16.388;2023-08-30T11:29:17;20.80;99.90
19330;DHT22;9799;48.214;16.388;2023-08-30T11:32:38;21.10;99.90
19330;DHT22;9799;48.214;16.388;2023-08-30T11:36:01;20.90;99.90
19330;DHT22;9799;48.214;16.388;2023-08-30T11:39:23;20.90;99.90
19330;DHT22;9799;48.214;16.388;2023-08-30T11:42:44;20.70;99.90
19330;DHT22;9799;48.214;16.388;2023-08-30T11:46:05;20.70;99.90
19330;DHT22;9799;48.214;16.388;2023-08-30T11:49:27;20.70;99.90
19330;DHT22;9799;48.214;16.388;2023-08-30T11:52:50;20.50;99.90
19330;DHT22;9799;48.214;16.388;2023-08-30T11:56:11;20.60;99.90
19330;DHT22;9799;48.214;16.388;2023-08-30T11:59:35;20.50;99.90
19330;DHT22;9799;48.214;16.388;2023-08-30T12:02:56;20.50;99.90
19330;DHT22;9799;48.214;16.388;2023-08-30T12:06:17;20.70;99.90
19330;DHT22;9799;48.214;16.388;2023-08-30T12:09:40;20.70;99.90
19330;DHT22;9799;48.214;16.388;2023-08-30T12:13:01;20.70;99.90
19330;DHT22;9799;48.214;16.388;2023-08-30T12:16:22;20.50;99.90
19330;DHT22;9799;48.214;16.388;2023-08-30T12:19:44;20.60;99.90
19330;DHT22;9799;48.214;16.388;2023-08-30T12:23:05;20.60;99.90
19330;DHT22;9799;48.214;16.388;2023-08-30T12:26:32;20.50;99.90
19330;DHT22;9799;48.214;16.388;2023-08-30T12:29:54;20.50;99.90
19330;DHT22;9799;48.214;16.388;2023-08-30T12:33:16;20.60;99.90
19330;DHT22;9799;48.214;16.388;2023-08-30T12:36:38;20.50;99.90
19330;DHT22;9799;48.214;16.388;2023-08-30T12:39:59;20.50;99.90
19330;DHT22;9799;48.214;16.388;2023-08-30T12:43:22;20.40;99.90
19330;DHT22;9799;48.214;16.388;2023-08-30T12:46:44;20.40;99.90
19330;DHT22;9799;48.214;16.388;2023-08-30T12:50:13;20.30;99.90
19330;DHT22;9799;48.214;16.388;2023-08-30T12:53:35;20.30;99.90
19330;DHT22;9799;48.214;16.388;2023-08-30T12:56:56;20.40;99.90
19330;DHT22;9799;48.214;16.388;2023-08-30T13:00:18;20.60;99.90
19330;DHT22;9799;48.214;16.388;2023-08-30T13:03:39;20.70;99.90
19330;DHT22;9799;48.214;16.388;2023-08-30T13:07:02;20.80;99.90
19330;DHT22;9799;48.214;16.388;2023-08-30T13:10:23;20.80;99.90
19330;DHT22;9799;48.214;16.388;2023-08-30T13:13:44;20.90;99.90
19330;DHT22;9799;48.214;16.388;2023-08-30T13:17:06;20.80;99.90
19330;DHT22;9799;48.214;16.388;2023-08-30T13:20:27;20.90;99.90
19330;DHT22;9799;48.214;16.388;2023-08-30T13:23:49;21.00;99.90
19330;DHT22;9799;48.214;16.388;2023-08-30T13:27:11;20.90;99.90
19330;DHT22;9799;48.214;16.388;2023-08-30T13:30:33;20.80;99.90
19330;DHT22;9799;48.214;16.388;2023-08-30T13:33:54;20.60;99.90
19330;DHT22;9799;48.214;16.388;2023-08-30T13:37:16;20.70;99.90
19330;DHT22;9799;48.214;16.388;2023-08-30T13:40:39;20.60;99.90
19330;DHT22;9799;48.214;16.388;2023-08-30T13:44:01;20.70;99.90
19330;DHT22;9799;48.214;16.388;2023-08-30T13:47:23;20.70;99.90
19330;DHT22;9799;48.214;16.388;2023-08-30T13:50:45;20.80;99.90
19330;DHT22;9799;48.214;16.388;2023-08-30T13:54:07;20.70;99.90
19330;DHT22;9799;48.214;16.388;2023-08-30T13:57:30;20.80;99.90
19330;DHT22;9799;48.214;16.388;2023-08-30T14:00:52;20.90;99.90
19330;DHT22;9799;48.214;16.388;2023-08-30T14:04:14;20.90;99.90
19330;DHT22;9799;48.214;16.388;2023-08-30T14:07:36;20.70;99.90
19330;DHT22;9799;48.214;16.388;2023-08-30T14:10:57;20.70;99.90
19330;DHT22;9799;48.214;16.388;2023-08-30T14:14:21;20.90;99.90
19330;DHT22;9799;48.214;16.388;2023-08-30T14:17:42;20.90;99.90
19330;DHT22;9799;48.214;16.388;2023-08-30T14:21:03;21.10;99.90
19330;DHT22;9799;48.214;16.388;2023-08-30T14:24:25;21.10;99.90
19330;DHT22;9799;48.214;16.388;2023-08-30T14:27:46;20.90;99.90
19330;DHT22;9799;48.214;16.388;2023-08-30T14:31:09;20.90;99.90
19330;DHT22;9799;48.214;16.388;2023-08-30T14:34:31;21.00;99.90
19330;DHT22;9799;48.214;16.388;2023-08-30T14:37:53;21.10;99.90
19330;DHT22;9799;48.214;16.388;2023-08-30T14:41:15;20.90;99.90
19330;DHT22;9799;48.214;16.388;2023-08-30T14:44:37;20.90;99.90
19330;DHT22;9799;48.214;16.388;2023-08-30T14:48:02;20.90;99.90
19330;DHT22;9799;48.214;16.388;2023-08-30T14:51:28;20.70;99.90
19330;DHT22;9799;48.214;16.388;2023-08-30T14:54:50;20.70;99.90
19330;DHT22;9799;48.214;16.388;2023-08-30T14:58:11;20.50;99.90
19330;DHT22;9799;48.214;16.388;2023-08-30T15:01:34;20.40;99.90
19330;DHT22;9799;48.214;16.388;2023-08-30T15:04:57;20.50;99.90
19330;DHT22;9799;48.214;16.388;2023-08-30T15:08:18;20.50;99.90
19330;DHT22;9799;48.214;16.388;2023-08-30T15:11:41;20.60;99.90
19330;DHT22;9799;48.214;16.388;2023-08-30T15:15:03;20.50;99.90
19330;DHT22;9799;48.214;16.388;2023-08-30T15:18:25;20.50;99.90
19330;DHT22;9799;48.214;16.388;2023-08-30T15:21:48;20.50;99.90
19330;DHT22;9799;48.214;16.388;2023-08-30T15:25:10;20.40;99.90
19330;DHT22;9799;48.214;16.388;2023-08-30T15:28:32;20.40;99.90
19330;DHT22;9799;48.214;16.388;2023-08-30T15:31:54;20.40;99.90
19330;DHT22;9799;48.214;16.388;2023-08-30T15:35:16;20.40;99.90
19330;DHT22;9799;48.214;16.388;2023-08-30T15:38:40;20.30;99.90
19330;DHT22;9799;48.214;16.388;2023-08-30T15:42:06;20.30;99.90
19330;DHT22;9799;48.214;16.388;2023-08-30T15:45:27;20.20;99.90
19330;DHT22;9799;48.214;16.388;2023-08-30T15:48:50;20.20;99.90
19330;DHT22;9799;48.214;16.388;2023-08-30T15:52:13;20.30;99.90
19330;DHT22;9799;48.214;16.388;2023-08-30T15:55:36;20.20;99.90
19330;DHT22;9799;48.214;16.388;2023-08-30T15:58:57;20.10;99.90
19330;DHT22;9799;48.214;16.388;2023-08-30T16:02:19;20.20;99.90
19330;DHT22;9799;48.214;16.388;2023-08-30T16:05:42;20.30;99.90
19330;DHT22;9799;48.214;16.388;2023-08-30T16:09:04;20.20;99.90
19330;DHT22;9799;48.214;16.388;2023-08-30T16:12:31;20.10;99.90
19330;DHT22;9799;48.214;16.388;2023-08-30T16:15:52;20.00;99.90
19330;DHT22;9799;48.214;16.388;2023-08-30T16:19:16;20.00;99.90
19330;DHT22;9799;48.214;16.388;2023-08-30T16:22:39;20.00;99.90
19330;DHT22;9799;48.214;16.388;2023-08-30T16:26:02;20.00;99.90
19330;DHT22;9799;48.214;16.388;2023-08-30T16:29:30;20.00;99.90
19330;DHT22;9799;48.214;16.388;2023-08-30T16:32:53;20.00;99.90
19330;DHT22;9799;48.214;16.388;2023-08-30T16:36:15;20.00;99.90
19330;DHT22;9799;48.214;16.388;2023-08-30T16:39:40;20.00;99.90
19330;DHT22;9799;48.214;16.388;2023-08-30T16:43:06;20.00;99.90
19330;DHT22;9799;48.214;16.388;2023-08-30T16:46:29;20.00;99.90
19330;DHT22;9799;48.214;16.388;2023-08-30T16:49:56;20.00;99.90
19330;DHT22;9799;48.214;16.388;2023-08-30T16:53:21;20.00;99.90
19330;DHT22;9799;48.214;16.388;2023-08-30T16:56:46;20.00;99.90
19330;DHT22;9799;48.214;16.388;2023-08-30T17:00:10;19.90;99.90
19330;DHT22;9799;48.214;16.388;2023-08-30T17:03:51;19.90;99.90
19330;DHT22;9799;48.214;16.388;2023-08-30T17:07:14;19.80;99.90
19330;DHT22;9799;48.214;16.388;2023-08-30T17:10:37;19.80;99.90
19330;DHT22;9799;48.214;16.388;2023-08-30T17:13:59;19.70;99.90
19330;DHT22;9799;48.214;16.388;2023-08-30T17:17:21;19.70;99.90
19330;DHT22;9799;48.214;16.388;2023-08-30T17:20:44;19.60;99.90
19330;DHT22;9799;48.214;16.388;2023-08-30T17:24:07;19.60;99.90
19330;DHT22;9799;48.214;16.388;2023-08-30T17:27:34;19.60;99.90
19330;DHT22;9799;48.214;16.388;2023-08-30T17:30:56;19.60;99.90
19330;DHT22;9799;48.214;16.388;2023-08-30T17:34:17;19.50;99.90
19330;DHT22;9799;48.214;16.388;2023-08-30T17:37:41;19.40;99.90
19330;DHT22;9799;48.214;16.388;2023-08-30T17:41:07;19.30;99.90
19330;DHT22;9799;48.214;16.388;2023-08-30T17:44:30;19.40;99.90
19330;DHT22;9799;48.214;16.388;2023-08-30T17:47:54;19.30;99.90
19330;DHT22;9799;48.214;16.388;2023-08-30T17:51:17;19.30;99.90
19330;DHT22;9799;48.214;16.388;2023-08-30T17:54:42;19.20;99.90
19330;DHT22;9799;48.214;16.388;2023-08-30T17:58:07;19.20;99.90
19330;DHT22;9799;48.214;16.388;2023-08-30T18:01:37;19.10;99.90
19330;DHT22;9799;48.214;16.388;2023-08-30T18:05:13;18.90;99.90
19330;DHT22;9799;48.214;16.388;2023-08-30T18:08:35;18.80;99.90
19330;DHT22;9799;48.214;16.388;2023-08-30T18:12:01;18.90;99.90
19330;DHT22;9799;48.214;16.388;2023-08-30T18:15:26;18.90;99.90
19330;DHT22;9799;48.214;16.388;2023-08-30T18:18:52;18.90;99.90
19330;DHT22;9799;48.214;16.388;2023-08-30T18:22:26;18.90;99.90
19330;DHT22;9799;48.214;16.388;2023-08-30T18:25:49;18.80;99.90
19330;DHT22;9799;48.214;16.388;2023-08-30T18:29:14;18.70;99.90
19330;DHT22;9799;48.214;16.388;2023-08-30T18:32:40;18.70;99.90
19330;DHT22;9799;48.214;16.388;2023-08-30T18:36:03;18.70;99.90
19330;DHT22;9799;48.214;16.388;2023-08-30T18:39:26;18.80;99.90
19330;DHT22;9799;48.214;16.388;2023-08-30T18:42:55;18.80;99.90
19330;DHT22;9799;48.214;16.388;2023-08-30T18:46:19;18.80;99.90
19330;DHT22;9799;48.214;16.388;2023-08-30T18:49:42;18.70;99.90
19330;DHT22;9799;48.214;16.388;2023-08-30T18:53:05;18.60;99.90
19330;DHT22;9799;48.214;16.388;2023-08-30T18:56:27;18.70;99.90
19330;DHT22;9799;48.214;16.388;2023-08-30T18:59:51;18.70;99.90
19330;DHT22;9799;48.214;16.388;2023-08-30T19:03:19;18.60;99.90
19330;DHT22;9799;48.214;16.388;2023-08-30T19:06:43;18.60;99.90
19330;DHT22;9799;48.214;16.388;2023-08-30T19:10:05;18.50;99.90
19330;DHT22;9799;48.214;16.388;2023-08-30T19:13:29;18.50;99.90
19330;DHT22;9799;48.214;16.388;2023-08-30T19:16:52;18.40;99.90
19330;DHT22;9799;48.214;16.388;2023-08-30T19:20:16;18.40;99.90
19330;DHT22;9799;48.214;16.388;2023-08-30T19:23:41;18.50;99.90
19330;DHT22;9799;48.214;16.388;2023-08-30T19:27:08;18.50;99.90
19330;DHT22;9799;48.214;16.388;2023-08-30T19:30:34;18.50;99.90
19330;DHT22;9799;48.214;16.388;2023-08-30T19:34:00;18.50;99.90
19330;DHT22;9799;48.214;16.388;2023-08-30T19:37:27;18.40;99.90
19330;DHT22;9799;48.214;16.388;2023-08-30T19:40:52;18.50;99.90
19330;DHT22;9799;48.214;16.388;2023-08-30T19:44:16;18.50;99.90
19330;DHT22;9799;48.214;16.388;2023-08-30T19:47:39;18.50;99.90
19330;DHT22;9799;48.214;16.388;2023-08-30T19:51:01;18.50;99.90
19330;DHT22;9799;48.214;16.388;2023-08-30T19:54:26;18.50;99.90
19330;DHT22;9799;48.214;16.388;2023-08-30T19:57:48;18.50;99.90
19330;DHT22;9799;48.214;16.388;2023-08-30T20:01:12;18.50;99.90
19330;DHT22;9799;48.214;16.388;2023-08-30T20:04:41;18.50;99.90
19330;DHT22;9799;48.214;16.388;2023-08-30T20:08:08;18.50;99.90
19330;DHT22;9799;48.214;16.388;2023-08-30T20:11:33;18.40;99.90
19330;DHT22;9799;48.214;16.388;2023-08-30T20:14:55;18.50;99.90
19330;DHT22;9799;48.214;16.388;2023-08-30T20:18:17;18.40;99.90
19330;DHT22;9799;48.214;16.388;2023-08-30T20:21:42;18.40;99.90
19330;DHT22;9799;48.214;16.388;2023-08-30T20:25:07;18.60;99.90
19330;DHT22;9799;48.214;16.388;2023-08-30T20:28:31;18.60;99.90
19330;DHT22;9799;48.214;16.388;2023-08-30T20:31:53;18.60;99.90
19330;DHT22;9799;48.214;16.388;2023-08-30T20:35:15;18.60;99.90
19330;DHT22;9799;48.214;16.388;2023-08-30T20:38:37;18.50;99.90
19330;DHT22;9799;48.214;16.388;2023-08-30T20:42:00;18.50;99.90
19330;DHT22;9799;48.214;16.388;2023-08-30T20:45:24;18.50;99.90
19330;DHT22;9799;48.214;16.388;2023-08-30T20:48:46;18.50;99.90
19330;DHT22;9799;48.214;16.388;2023-08-30T20:52:08;18.50;99.90
19330;DHT22;9799;48.214;16.388;2023-08-30T20:55:41;18.50;99.90
19330;DHT22;9799;48.214;16.388;2023-08-30T20:59:03;18.40;99.90
19330;DHT22;9799;48.214;16.388;2023-08-30T21:02:27;18.50;99.90
19330;DHT22;9799;48.214;16.388;2023-08-30T21:05:52;18.40;99.90
19330;DHT22;9799;48.214;16.388;2023-08-30T21:09:13;18.50;99.90
19330;DHT22;9799;48.214;16.388;2023-08-30T21:12:34;18.40;99.90
19330;DHT22;9799;48.214;16.388;2023-08-30T21:15:57;18.40;99.90
19330;DHT22;9799;48.214;16.388;2023-08-30T21:19:19;18.40;99.90
19330;DHT22;9799;48.214;16.388;2023-08-30T21:22:41;18.40;99.90